sensor_id;sensor_type;location;lat;lon;timestamp;P1;durP1;ratioP1;P2;durP2;ratioP2
9970;SDS011;5026;51.494;11.974;2024-03-07T00:00:42;25.53;;;14.10;;
9970;SDS011;5026;51.494;11.974;2024-03-07T00:03:09;26.03;;;14.37;;
9970;SDS011;5026;51.494;11.974;2024-03-07T00:05:36;30.43;;;15.30;;
9970;SDS011;5026;51.494;11.974;2024-03-07T00:08:05;29.63;;;15.67;;
9970;SDS011;5026;51.494;11.974;2024-03-07T00:10:32;28.10;;;14.67;;
9970;SDS011;5026;51.494;11.974;2024-03-07T00:13:01;27.73;;;15.17;;
9970;SDS011;5026;51.494;11.974;2024-03-07T00:15:28;31.50;;;15.60;;
9970;SDS011;5026;51.494;11.974;2024-03-07T00:17:57;33.03;;;15.50;;
9970;SDS011;5026;51.494;11.974;2024-03-07T00:20:25;36.90;;;16.60;;
9970;SDS011;5026;51.494;11.974;2024-03-07T00:22:52;35.63;;;17.43;;
9970;SDS011;5026;51.494;11.974;2024-03-07T00:25:19;33.63;;;16.17;;
9970;SDS011;5026;51.494;11.974;2024-03-07T00:27:47;35.47;;;17.50;;
9970;SDS011;5026;51.494;11.974;2024-03-07T00:30:17;37.07;;;17.30;;
9970;SDS011;5026;51.494;11.974;2024-03-07T00:32:45;39.80;;;19.37;;
9970;SDS011;5026;51.494;11.974;2024-03-07T00:35:13;41.77;;;19.17;;
9970;SDS011;5026;51.494;11.974;2024-03-07T00:37:40;40.63;;;19.57;;
9970;SDS011;5026;51.494;11.974;2024-03-07T00:40:08;42.40;;;19.07;;
9970;SDS011;5026;51.494;11.974;2024-03-07T00:42:36;44.37;;;19.67;;
9970;SDS011;5026;51.494;11.974;2024-03-07T00:45:03;40.17;;;18.33;;
9970;SDS011;5026;51.494;11.974;2024-03-07T00:47:31;37.97;;;18.67;;
9970;SDS011;5026;51.494;11.974;2024-03-07T00:49:58;45.50;;;20.23;;
9970;SDS011;5026;51.494;11.974;2024-03-07T00:52:27;51.30;;;20.77;;
9970;SDS011;5026;51.494;11.974;2024-03-07T00:54:54;51.50;;;21.97;;
9970;SDS011;5026;51.494;11.974;2024-03-07T00:57:21;49.97;;;21.63;;
9970;SDS011;5026;51.494;11.974;2024-03-07T00:59:48;54.77;;;21.03;;
9970;SDS011;5026;51.494;11.974;2024-03-07T01:02:15;54.63;;;21.80;;
9970;SDS011;5026;51.494;11.974;2024-03-07T01:04:43;55.93;;;23.43;;
9970;SDS011;5026;51.494;11.974;2024-03-07T01:07:10;57.27;;;22.93;;
9970;SDS011;5026;51.494;11.974;2024-03-07T01:09:38;58.00;;;24.77;;
9970;SDS011;5026;51.494;11.974;2024-03-07T01:12:05;58.63;;;23.67;;
9970;SDS011;5026;51.494;11.974;2024-03-07T01:14:35;50.90;;;22.97;;
9970;SDS011;5026;51.494;11.974;2024-03-07T01:17:02;59.73;;;24.63;;
9970;SDS011;5026;51.494;11.974;2024-03-07T01:19:32;61.50;;;24.47;;
9970;SDS011;5026;51.494;11.974;2024-03-07T01:21:58;67.77;;;25.63;;
9970;SDS011;5026;51.494;11.974;2024-03-07T01:24:25;60.47;;;25.87;;
9970;SDS011;5026;51.494;11.974;2024-03-07T01:26:53;74.63;;;26.30;;
9970;SDS011;5026;51.494;11.974;2024-03-07T01:29:20;69.33;;;27.20;;
9970;SDS011;5026;51.494;11.974;2024-03-07T01:31:47;61.17;;;25.37;;
9970;SDS011;5026;51.494;11.974;2024-03-07T01:34:14;62.80;;;26.00;;
9970;SDS011;5026;51.494;11.974;2024-03-07T01:36:41;67.23;;;26.10;;
9970;SDS011;5026;51.494;11.974;2024-03-07T01:39:08;67.10;;;25.30;;
9970;SDS011;5026;51.494;11.974;2024-03-07T01:41:35;63.63;;;24.67;;
9970;SDS011;5026;51.494;11.974;2024-03-07T01:44:04;53.93;;;22.73;;
9970;SDS011;5026;51.494;11.974;2024-03-07T01:46:31;51.47;;;22.07;;
9970;SDS011;5026;51.494;11.974;2024-03-07T01:48:58;49.60;;;21.80;;
9970;SDS011;5026;51.494;11.974;2024-03-07T01:51:25;52.07;;;21.53;;
9970;SDS011;5026;51.494;11.974;2024-03-07T01:53:53;44.63;;;19.70;;
9970;SDS011;5026;51.494;11.974;2024-03-07T01:56:20;46.77;;;20.73;;
9970;SDS011;5026;51.494;11.974;2024-03-07T01:58:47;43.97;;;20.10;;
9970;SDS011;5026;51.494;11.974;2024-03-07T02:01:18;45.10;;;20.73;;
9970;SDS011;5026;51.494;11.974;2024-03-07T02:03:45;42.67;;;20.53;;
9970;SDS011;5026;51.494;11.974;2024-03-07T02:06:12;40.70;;;18.70;;
9970;SDS011;5026;51.494;11.974;2024-03-07T02:08:38;40.20;;;19.63;;
9970;SDS011;5026;51.494;11.974;2024-03-07T02:11:05;41.03;;;19.50;;
9970;SDS011;5026;51.494;11.974;2024-03-07T02:13:34;43.83;;;19.37;;
9970;SDS011;5026;51.494;11.974;2024-03-07T02:16:01;40.70;;;19.27;;
9970;SDS011;5026;51.494;11.974;2024-03-07T02:18:30;38.87;;;19.43;;
9970;SDS011;5026;51.494;11.974;2024-03-07T02:20:58;42.77;;;20.77;;
9970;SDS011;5026;51.494;11.974;2024-03-07T02:23:25;43.20;;;19.23;;
9970;SDS011;5026;51.494;11.974;2024-03-07T02:25:52;43.60;;;21.83;;
9970;SDS011;5026;51.494;11.974;2024-03-07T02:28:19;41.30;;;20.03;;
9970;SDS011;5026;51.494;11.974;2024-03-07T02:30:46;38.20;;;19.77;;
9970;SDS011;5026;51.494;11.974;2024-03-07T02:33:13;42.23;;;21.40;;
9970;SDS011;5026;51.494;11.974;2024-03-07T02:35:40;45.77;;;21.90;;
9970;SDS011;5026;51.494;11.974;2024-03-07T02:38:08;41.13;;;20.27;;
9970;SDS011;5026;51.494;11.974;2024-03-07T02:40:35;50.07;;;22.67;;
9970;SDS011;5026;51.494;11.974;2024-03-07T02:43:02;42.17;;;21.33;;
9970;SDS011;5026;51.494;11.974;2024-03-07T02:45:30;43.13;;;21.20;;
9970;SDS011;5026;51.494;11.974;2024-03-07T02:47:57;44.97;;;21.10;;
9970;SDS011;5026;51.494;11.974;2024-03-07T02:50:23;44.40;;;21.63;;
9970;SDS011;5026;51.494;11.974;2024-03-07T02:52:50;54.53;;;22.90;;
9970;SDS011;5026;51.494;11.974;2024-03-07T02:55:19;46.90;;;22.77;;
9970;SDS011;5026;51.494;11.974;2024-03-07T02:57:46;51.67;;;23.93;;
9970;SDS011;5026;51.494;11.974;2024-03-07T03:00:13;52.60;;;23.80;;
9970;SDS011;5026;51.494;11.974;2024-03-07T03:02:45;49.10;;;22.47;;
9970;SDS011;5026;51.494;11.974;2024-03-07T03:05:13;46.27;;;22.37;;
9970;SDS011;5026;51.494;11.974;2024-03-07T03:07:40;48.97;;;23.87;;
9970;SDS011;5026;51.494;11.974;2024-03-07T03:10:07;48.57;;;22.70;;
9970;SDS011;5026;51.494;11.974;2024-03-07T03:12:37;53.87;;;25.17;;
9970;SDS011;5026;51.494;11.974;2024-03-07T03:15:04;51.30;;;25.17;;
9970;SDS011;5026;51.494;11.974;2024-03-07T03:17:34;54.00;;;28.03;;
9970;SDS011;5026;51.494;11.974;2024-03-07T03:20:01;56.17;;;26.23;;
9970;SDS011;5026;51.494;11.974;2024-03-07T03:22:34;55.93;;;24.97;;
9970;SDS011;5026;51.494;11.974;2024-03-07T03:25:02;53.57;;;26.07;;
9970;SDS011;5026;51.494;11.974;2024-03-07T03:27:29;60.77;;;25.40;;
9970;SDS011;5026;51.494;11.974;2024-03-07T03:29:57;56.90;;;25.93;;
9970;SDS011;5026;51.494;11.974;2024-03-07T03:32:25;60.97;;;26.70;;
9970;SDS011;5026;51.494;11.974;2024-03-07T03:34:53;59.37;;;25.57;;
9970;SDS011;5026;51.494;11.974;2024-03-07T03:37:20;53.30;;;24.33;;
9970;SDS011;5026;51.494;11.974;2024-03-07T03:39:47;55.17;;;24.47;;
9970;SDS011;5026;51.494;11.974;2024-03-07T03:42:14;54.13;;;25.33;;
9970;SDS011;5026;51.494;11.974;2024-03-07T03:44:42;55.60;;;25.50;;
9970;SDS011;5026;51.494;11.974;2024-03-07T03:47:10;60.37;;;26.03;;
9970;SDS011;5026;51.494;11.974;2024-03-07T03:49:37;57.53;;;25.73;;
9970;SDS011;5026;51.494;11.974;2024-03-07T03:52:04;50.73;;;23.60;;
9970;SDS011;5026;51.494;11.974;2024-03-07T03:54:31;52.03;;;24.73;;
9970;SDS011;5026;51.494;11.974;2024-03-07T03:56:58;55.00;;;23.80;;
9970;SDS011;5026;51.494;11.974;2024-03-07T03:59:25;54.13;;;25.47;;
9970;SDS011;5026;51.494;11.974;2024-03-07T04:01:52;59.27;;;25.63;;
9970;SDS011;5026;51.494;11.974;2024-03-07T04:04:21;60.80;;;25.03;;
9970;SDS011;5026;51.494;11.974;2024-03-07T04:06:51;60.57;;;26.47;;
9970;SDS011;5026;51.494;11.974;2024-03-07T04:09:17;65.20;;;26.73;;
9970;SDS011;5026;51.494;11.974;2024-03-07T04:11:45;67.37;;;25.83;;
9970;SDS011;5026;51.494;11.974;2024-03-07T04:14:13;62.00;;;26.33;;
9970;SDS011;5026;51.494;11.974;2024-03-07T04:16:40;67.87;;;26.70;;
9970;SDS011;5026;51.494;11.974;2024-03-07T04:19:07;70.40;;;28.43;;
9970;SDS011;5026;51.494;11.974;2024-03-07T04:21:35;69.90;;;27.57;;
9970;SDS011;5026;51.494;11.974;2024-03-07T04:24:02;71.00;;;28.30;;
9970;SDS011;5026;51.494;11.974;2024-03-07T04:26:29;68.77;;;29.33;;
9970;SDS011;5026;51.494;11.974;2024-03-07T04:28:56;77.13;;;30.33;;
9970;SDS011;5026;51.494;11.974;2024-03-07T04:31:24;79.83;;;32.57;;
9970;SDS011;5026;51.494;11.974;2024-03-07T04:33:51;86.50;;;32.53;;
9970;SDS011;5026;51.494;11.974;2024-03-07T04:36:18;83.60;;;32.83;;
9970;SDS011;5026;51.494;11.974;2024-03-07T04:38:46;87.53;;;33.03;;
9970;SDS011;5026;51.494;11.974;2024-03-07T04:41:13;98.73;;;33.90;;
9970;SDS011;5026;51.494;11.974;2024-03-07T04:43:41;97.53;;;34.33;;
9970;SDS011;5026;51.494;11.974;2024-03-07T04:46:08;91.50;;;36.90;;
9970;SDS011;5026;51.494;11.974;2024-03-07T04:48:35;100.60;;;35.10;;
9970;SDS011;5026;51.494;11.974;2024-03-07T04:51:02;107.33;;;37.50;;
9970;SDS011;5026;51.494;11.974;2024-03-07T04:53:30;100.63;;;38.57;;
9970;SDS011;5026;51.494;11.974;2024-03-07T04:55:58;98.00;;;36.80;;
9970;SDS011;5026;51.494;11.974;2024-03-07T04:58:25;105.77;;;39.00;;
9970;SDS011;5026;51.494;11.974;2024-03-07T05:00:52;86.00;;;33.67;;
9970;SDS011;5026;51.494;11.974;2024-03-07T05:03:19;111.53;;;37.23;;
9970;SDS011;5026;51.494;11.974;2024-03-07T05:05:46;99.57;;;36.20;;
9970;SDS011;5026;51.494;11.974;2024-03-07T05:08:13;106.83;;;36.67;;
9970;SDS011;5026;51.494;11.974;2024-03-07T05:10:40;98.27;;;35.93;;
9970;SDS011;5026;51.494;11.974;2024-03-07T05:13:08;97.93;;;36.47;;
9970;SDS011;5026;51.494;11.974;2024-03-07T05:15:35;98.03;;;35.80;;
9970;SDS011;5026;51.494;11.974;2024-03-07T05:18:02;94.73;;;35.77;;
9970;SDS011;5026;51.494;11.974;2024-03-07T05:20:29;95.07;;;37.03;;
9970;SDS011;5026;51.494;11.974;2024-03-07T05:22:56;93.63;;;33.37;;
9970;SDS011;5026;51.494;11.974;2024-03-07T05:25:24;100.83;;;35.83;;
9970;SDS011;5026;51.494;11.974;2024-03-07T05:27:51;98.20;;;36.93;;
9970;SDS011;5026;51.494;11.974;2024-03-07T05:30:20;99.17;;;36.93;;
9970;SDS011;5026;51.494;11.974;2024-03-07T05:32:49;95.57;;;36.03;;
9970;SDS011;5026;51.494;11.974;2024-03-07T05:35:16;93.53;;;38.20;;
9970;SDS011;5026;51.494;11.974;2024-03-07T05:37:43;92.50;;;35.67;;
9970;SDS011;5026;51.494;11.974;2024-03-07T05:40:12;92.30;;;36.43;;
9970;SDS011;5026;51.494;11.974;2024-03-07T05:42:39;91.70;;;37.17;;
9970;SDS011;5026;51.494;11.974;2024-03-07T05:45:06;94.67;;;35.47;;
9970;SDS011;5026;51.494;11.974;2024-03-07T05:47:35;92.17;;;33.90;;
9970;SDS011;5026;51.494;11.974;2024-03-07T05:50:02;92.67;;;36.50;;
9970;SDS011;5026;51.494;11.974;2024-03-07T05:52:32;82.80;;;34.30;;
9970;SDS011;5026;51.494;11.974;2024-03-07T05:54:59;82.60;;;32.70;;
9970;SDS011;5026;51.494;11.974;2024-03-07T05:57:27;81.83;;;33.70;;
9970;SDS011;5026;51.494;11.974;2024-03-07T05:59:54;84.67;;;34.30;;
9970;SDS011;5026;51.494;11.974;2024-03-07T06:02:21;79.23;;;33.60;;
9970;SDS011;5026;51.494;11.974;2024-03-07T06:04:50;85.97;;;34.23;;
9970;SDS011;5026;51.494;11.974;2024-03-07T06:07:17;74.97;;;33.03;;
9970;SDS011;5026;51.494;11.974;2024-03-07T06:09:44;83.33;;;34.03;;
9970;SDS011;5026;51.494;11.974;2024-03-07T06:12:11;74.90;;;33.13;;
9970;SDS011;5026;51.494;11.974;2024-03-07T06:14:38;75.10;;;33.77;;
9970;SDS011;5026;51.494;11.974;2024-03-07T06:17:05;71.83;;;31.97;;
9970;SDS011;5026;51.494;11.974;2024-03-07T06:19:32;82.73;;;34.80;;
9970;SDS011;5026;51.494;11.974;2024-03-07T06:22:00;77.27;;;34.00;;
9970;SDS011;5026;51.494;11.974;2024-03-07T06:24:33;73.50;;;31.97;;
9970;SDS011;5026;51.494;11.974;2024-03-07T06:27:01;75.13;;;31.67;;
9970;SDS011;5026;51.494;11.974;2024-03-07T06:29:34;80.43;;;33.20;;
9970;SDS011;5026;51.494;11.974;2024-03-07T06:32:01;69.77;;;32.90;;
9970;SDS011;5026;51.494;11.974;2024-03-07T06:34:28;72.97;;;31.70;;
9970;SDS011;5026;51.494;11.974;2024-03-07T06:36:56;76.20;;;31.70;;
9970;SDS011;5026;51.494;11.974;2024-03-07T06:39:24;65.63;;;31.00;;
9970;SDS011;5026;51.494;11.974;2024-03-07T06:41:52;71.80;;;31.10;;
9970;SDS011;5026;51.494;11.974;2024-03-07T06:44:19;66.10;;;30.33;;
9970;SDS011;5026;51.494;11.974;2024-03-07T06:46:48;67.03;;;30.63;;
9970;SDS011;5026;51.494;11.974;2024-03-07T06:49:15;70.13;;;30.30;;
9970;SDS011;5026;51.494;11.974;2024-03-07T06:51:42;71.77;;;31.33;;
9970;SDS011;5026;51.494;11.974;2024-03-07T06:54:09;62.00;;;29.70;;
9970;SDS011;5026;51.494;11.974;2024-03-07T06:56:38;60.87;;;28.03;;
9970;SDS011;5026;51.494;11.974;2024-03-07T06:59:08;57.13;;;28.70;;
9970;SDS011;5026;51.494;11.974;2024-03-07T07:01:35;64.83;;;28.40;;
9970;SDS011;5026;51.494;11.974;2024-03-07T07:04:02;57.80;;;29.37;;
9970;SDS011;5026;51.494;11.974;2024-03-07T07:06:29;63.47;;;27.97;;
9970;SDS011;5026;51.494;11.974;2024-03-07T07:08:56;64.73;;;27.97;;
9970;SDS011;5026;51.494;11.974;2024-03-07T07:11:28;59.50;;;29.13;;
9970;SDS011;5026;51.494;11.974;2024-03-07T07:13:56;55.00;;;27.00;;
9970;SDS011;5026;51.494;11.974;2024-03-07T07:16:24;63.53;;;30.30;;
9970;SDS011;5026;51.494;11.974;2024-03-07T07:18:50;59.83;;;27.50;;
9970;SDS011;5026;51.494;11.974;2024-03-07T07:21:17;54.50;;;28.07;;
9970;SDS011;5026;51.494;11.974;2024-03-07T07:23:45;53.33;;;27.27;;
9970;SDS011;5026;51.494;11.974;2024-03-07T07:26:14;59.77;;;27.20;;
9970;SDS011;5026;51.494;11.974;2024-03-07T07:28:40;52.77;;;24.73;;
9970;SDS011;5026;51.494;11.974;2024-03-07T07:31:09;54.63;;;27.57;;
9970;SDS011;5026;51.494;11.974;2024-03-07T07:33:36;49.80;;;26.30;;
9970;SDS011;5026;51.494;11.974;2024-03-07T07:36:03;56.77;;;26.03;;
9970;SDS011;5026;51.494;11.974;2024-03-07T07:38:30;52.47;;;27.33;;
9970;SDS011;5026;51.494;11.974;2024-03-07T07:40:57;46.00;;;24.30;;
9970;SDS011;5026;51.494;11.974;2024-03-07T07:43:26;42.93;;;21.50;;
9970;SDS011;5026;51.494;11.974;2024-03-07T07:45:54;38.47;;;20.33;;
9970;SDS011;5026;51.494;11.974;2024-03-07T07:48:22;31.57;;;17.70;;
9970;SDS011;5026;51.494;11.974;2024-03-07T07:50:49;32.60;;;17.87;;
9970;SDS011;5026;51.494;11.974;2024-03-07T07:53:17;27.97;;;15.63;;
9970;SDS011;5026;51.494;11.974;2024-03-07T07:55:44;33.73;;;17.57;;
9970;SDS011;5026;51.494;11.974;2024-03-07T07:58:14;28.13;;;17.00;;
9970;SDS011;5026;51.494;11.974;2024-03-07T08:00:43;33.10;;;17.87;;
9970;SDS011;5026;51.494;11.974;2024-03-07T08:03:10;29.20;;;15.40;;
9970;SDS011;5026;51.494;11.974;2024-03-07T08:05:41;28.33;;;16.40;;
9970;SDS011;5026;51.494;11.974;2024-03-07T08:08:10;25.73;;;14.23;;
9970;SDS011;5026;51.494;11.974;2024-03-07T08:10:39;23.10;;;11.47;;
9970;SDS011;5026;51.494;11.974;2024-03-07T08:13:06;19.43;;;10.27;;
9970;SDS011;5026;51.494;11.974;2024-03-07T08:15:33;21.33;;;11.20;;
9970;SDS011;5026;51.494;11.974;2024-03-07T08:18:01;17.43;;;10.80;;
9970;SDS011;5026;51.494;11.974;2024-03-07T08:20:33;16.77;;;10.37;;
9970;SDS011;5026;51.494;11.974;2024-03-07T08:23:02;17.93;;;9.67;;
9970;SDS011;5026;51.494;11.974;2024-03-07T08:25:30;19.57;;;10.63;;
9970;SDS011;5026;51.494;11.974;2024-03-07T08:27:57;18.97;;;10.47;;
9970;SDS011;5026;51.494;11.974;2024-03-07T08:30:24;16.73;;;10.47;;
9970;SDS011;5026;51.494;11.974;2024-03-07T08:32:54;24.00;;;11.97;;
9970;SDS011;5026;51.494;11.974;2024-03-07T08:35:21;18.70;;;10.23;;
9970;SDS011;5026;51.494;11.974;2024-03-07T08:37:50;17.70;;;10.30;;
9970;SDS011;5026;51.494;11.974;2024-03-07T08:40:20;19.77;;;11.80;;
9970;SDS011;5026;51.494;11.974;2024-03-07T08:42:48;20.80;;;10.70;;
9970;SDS011;5026;51.494;11.974;2024-03-07T08:45:18;18.63;;;11.73;;
9970;SDS011;5026;51.494;11.974;2024-03-07T08:47:45;17.23;;;10.67;;
9970;SDS011;5026;51.494;11.974;2024-03-07T08:50:13;17.43;;;10.37;;
9970;SDS011;5026;51.494;11.974;2024-03-07T08:52:43;18.97;;;11.10;;
9970;SDS011;5026;51.494;11.974;2024-03-07T08:55:11;18.00;;;10.37;;
9970;SDS011;5026;51.494;11.974;2024-03-07T08:57:41;19.73;;;11.23;;
9970;SDS011;5026;51.494;11.974;2024-03-07T09:00:11;15.43;;;9.67;;
9970;SDS011;5026;51.494;11.974;2024-03-07T09:02:47;17.33;;;9.33;;
9970;SDS011;5026;51.494;11.974;2024-03-07T09:05:15;15.30;;;8.67;;
9970;SDS011;5026;51.494;11.974;2024-03-07T09:07:42;16.07;;;9.63;;
9970;SDS011;5026;51.494;11.974;2024-03-07T09:10:10;18.33;;;9.97;;
9970;SDS011;5026;51.494;11.974;2024-03-07T09:12:37;14.37;;;9.37;;
9970;SDS011;5026;51.494;11.974;2024-03-07T09:15:06;17.53;;;9.60;;
9970;SDS011;5026;51.494;11.974;2024-03-07T09:17:35;15.97;;;10.07;;
9970;SDS011;5026;51.494;11.974;2024-03-07T09:20:03;18.63;;;9.47;;
9970;SDS011;5026;51.494;11.974;2024-03-07T09:22:31;14.77;;;9.53;;
9970;SDS011;5026;51.494;11.974;2024-03-07T09:24:58;17.03;;;10.37;;
9970;SDS011;5026;51.494;11.974;2024-03-07T09:27:25;13.90;;;8.80;;
9970;SDS011;5026;51.494;11.974;2024-03-07T09:29:52;16.70;;;9.20;;
9970;SDS011;5026;51.494;11.974;2024-03-07T09:32:20;19.43;;;9.60;;
9970;SDS011;5026;51.494;11.974;2024-03-07T09:34:50;17.80;;;9.20;;
9970;SDS011;5026;51.494;11.974;2024-03-07T09:37:17;15.37;;;8.90;;
9970;SDS011;5026;51.494;11.974;2024-03-07T09:39:46;15.03;;;9.80;;
9970;SDS011;5026;51.494;11.974;2024-03-07T09:42:14;18.33;;;9.87;;
9970;SDS011;5026;51.494;11.974;2024-03-07T09:44:44;14.47;;;8.97;;
9970;SDS011;5026;51.494;11.974;2024-03-07T09:47:12;15.13;;;9.40;;
9970;SDS011;5026;51.494;11.974;2024-03-07T09:49:41;19.23;;;9.30;;
9970;SDS011;5026;51.494;11.974;2024-03-07T09:52:08;19.53;;;9.17;;
9970;SDS011;5026;51.494;11.974;2024-03-07T09:54:38;14.40;;;9.40;;
9970;SDS011;5026;51.494;11.974;2024-03-07T09:57:05;17.97;;;8.93;;
9970;SDS011;5026;51.494;11.974;2024-03-07T09:59:34;17.23;;;9.10;;
9970;SDS011;5026;51.494;11.974;2024-03-07T10:02:03;15.00;;;9.33;;
9970;SDS011;5026;51.494;11.974;2024-03-07T10:04:33;14.37;;;9.13;;
9970;SDS011;5026;51.494;11.974;2024-03-07T10:07:07;13.40;;;9.00;;
9970;SDS011;5026;51.494;11.974;2024-03-07T10:09:37;16.60;;;9.20;;
9970;SDS011;5026;51.494;11.974;2024-03-07T10:12:05;15.17;;;8.87;;
9970;SDS011;5026;51.494;11.974;2024-03-07T10:14:37;15.03;;;8.83;;
9970;SDS011;5026;51.494;11.974;2024-03-07T10:17:14;15.20;;;9.30;;
9970;SDS011;5026;51.494;11.974;2024-03-07T10:19:41;16.03;;;9.07;;
9970;SDS011;5026;51.494;11.974;2024-03-07T10:22:10;15.73;;;10.03;;
9970;SDS011;5026;51.494;11.974;2024-03-07T10:24:37;14.70;;;9.13;;
9970;SDS011;5026;51.494;11.974;2024-03-07T10:27:04;13.40;;;8.43;;
9970;SDS011;5026;51.494;11.974;2024-03-07T10:29:34;16.53;;;9.23;;
9970;SDS011;5026;51.494;11.974;2024-03-07T10:32:01;14.87;;;9.37;;
9970;SDS011;5026;51.494;11.974;2024-03-07T10:34:38;16.97;;;9.80;;
9970;SDS011;5026;51.494;11.974;2024-03-07T10:37:04;14.30;;;9.47;;
9970;SDS011;5026;51.494;11.974;2024-03-07T10:39:35;12.60;;;8.63;;
9970;SDS011;5026;51.494;11.974;2024-03-07T10:42:02;11.67;;;8.57;;
9970;SDS011;5026;51.494;11.974;2024-03-07T10:44:31;15.17;;;9.40;;
9970;SDS011;5026;51.494;11.974;2024-03-07T10:47:06;20.07;;;9.57;;
9970;SDS011;5026;51.494;11.974;2024-03-07T10:49:37;15.53;;;9.30;;
9970;SDS011;5026;51.494;11.974;2024-03-07T10:52:17;14.40;;;8.97;;
9970;SDS011;5026;51.494;11.974;2024-03-07T10:54:55;14.00;;;9.00;;
9970;SDS011;5026;51.494;11.974;2024-03-07T10:57:36;14.00;;;9.10;;
9970;SDS011;5026;51.494;11.974;2024-03-07T11:00:13;14.13;;;8.57;;
9970;SDS011;5026;51.494;11.974;2024-03-07T11:02:55;12.77;;;8.90;;
9970;SDS011;5026;51.494;11.974;2024-03-07T11:05:24;12.17;;;7.67;;
9970;SDS011;5026;51.494;11.974;2024-03-07T11:07:55;12.00;;;7.63;;
9970;SDS011;5026;51.494;11.974;2024-03-07T11:10:26;14.43;;;8.00;;
9970;SDS011;5026;51.494;11.974;2024-03-07T11:12:53;13.33;;;8.30;;
9970;SDS011;5026;51.494;11.974;2024-03-07T11:15:22;15.40;;;8.90;;
9970;SDS011;5026;51.494;11.974;2024-03-07T11:17:52;17.03;;;9.13;;
9970;SDS011;5026;51.494;11.974;2024-03-07T11:20:20;15.63;;;8.90;;
9970;SDS011;5026;51.494;11.974;2024-03-07T11:22:48;18.20;;;9.80;;
9970;SDS011;5026;51.494;11.974;2024-03-07T11:25:17;16.10;;;9.80;;
9970;SDS011;5026;51.494;11.974;2024-03-07T11:27:52;15.10;;;9.80;;
9970;SDS011;5026;51.494;11.974;2024-03-07T11:30:22;15.03;;;9.20;;
9970;SDS011;5026;51.494;11.974;2024-03-07T11:32:49;19.17;;;11.13;;
9970;SDS011;5026;51.494;11.974;2024-03-07T11:35:18;19.50;;;10.97;;
9970;SDS011;5026;51.494;11.974;2024-03-07T11:37:55;16.43;;;11.90;;
9970;SDS011;5026;51.494;11.974;2024-03-07T11:43:19;17.63;;;10.03;;
9970;SDS011;5026;51.494;11.974;2024-03-07T11:45:46;18.20;;;10.80;;
9970;SDS011;5026;51.494;11.974;2024-03-07T11:48:17;18.63;;;11.07;;
9970;SDS011;5026;51.494;11.974;2024-03-07T11:50:46;18.70;;;10.00;;
9970;SDS011;5026;51.494;11.974;2024-03-07T11:53:14;13.67;;;9.70;;
9970;SDS011;5026;51.494;11.974;2024-03-07T11:55:42;19.53;;;11.73;;
9970;SDS011;5026;51.494;11.974;2024-03-07T11:58:11;18.00;;;10.90;;
9970;SDS011;5026;51.494;11.974;2024-03-07T12:00:43;17.50;;;12.33;;
9970;SDS011;5026;51.494;11.974;2024-03-07T12:03:11;16.43;;;10.67;;
9970;SDS011;5026;51.494;11.974;2024-03-07T12:05:40;17.17;;;10.87;;
9970;SDS011;5026;51.494;11.974;2024-03-07T12:08:08;16.97;;;11.20;;
9970;SDS011;5026;51.494;11.974;2024-03-07T12:10:36;18.27;;;9.87;;
9970;SDS011;5026;51.494;11.974;2024-03-07T12:13:05;18.83;;;11.50;;
9970;SDS011;5026;51.494;11.974;2024-03-07T12:15:33;15.73;;;10.47;;
9970;SDS011;5026;51.494;11.974;2024-03-07T12:18:02;16.63;;;10.47;;
9970;SDS011;5026;51.494;11.974;2024-03-07T12:20:34;19.77;;;10.17;;
9970;SDS011;5026;51.494;11.974;2024-03-07T12:23:02;19.17;;;10.37;;
9970;SDS011;5026;51.494;11.974;2024-03-07T12:25:33;23.13;;;11.70;;
9970;SDS011;5026;51.494;11.974;2024-03-07T12:28:05;16.37;;;10.40;;
9970;SDS011;5026;51.494;11.974;2024-03-07T12:30:36;19.30;;;11.73;;
9970;SDS011;5026;51.494;11.974;2024-03-07T12:33:16;19.50;;;11.70;;
9970;SDS011;5026;51.494;11.974;2024-03-07T12:35:44;20.60;;;10.87;;
9970;SDS011;5026;51.494;11.974;2024-03-07T12:38:12;16.67;;;10.77;;
9970;SDS011;5026;51.494;11.974;2024-03-07T12:40:42;20.70;;;11.53;;
9970;SDS011;5026;51.494;11.974;2024-03-07T12:43:17;16.50;;;10.37;;
9970;SDS011;5026;51.494;11.974;2024-03-07T12:45:47;18.43;;;10.03;;
9970;SDS011;5026;51.494;11.974;2024-03-07T12:48:16;18.13;;;10.87;;
9970;SDS011;5026;51.494;11.974;2024-03-07T12:50:46;21.37;;;11.67;;
9970;SDS011;5026;51.494;11.974;2024-03-07T12:53:18;18.60;;;10.80;;
9970;SDS011;5026;51.494;11.974;2024-03-07T12:55:45;22.73;;;11.07;;
9970;SDS011;5026;51.494;11.974;2024-03-07T12:58:12;15.43;;;10.03;;
9970;SDS011;5026;51.494;11.974;2024-03-07T13:00:40;16.83;;;10.37;;
9970;SDS011;5026;51.494;11.974;2024-03-07T13:03:08;20.60;;;11.40;;
9970;SDS011;5026;51.494;11.974;2024-03-07T13:05:37;17.10;;;10.67;;
9970;SDS011;5026;51.494;11.974;2024-03-07T13:08:08;18.80;;;11.53;;
9970;SDS011;5026;51.494;11.974;2024-03-07T13:10:37;19.87;;;11.47;;
9970;SDS011;5026;51.494;11.974;2024-03-07T13:13:05;18.67;;;10.67;;
9970;SDS011;5026;51.494;11.974;2024-03-07T13:15:32;20.00;;;10.67;;
9970;SDS011;5026;51.494;11.974;2024-03-07T13:18:02;17.53;;;11.30;;
9970;SDS011;5026;51.494;11.974;2024-03-07T13:20:30;19.73;;;10.63;;
9970;SDS011;5026;51.494;11.974;2024-03-07T13:22:58;16.80;;;10.10;;
9970;SDS011;5026;51.494;11.974;2024-03-07T13:25:26;18.20;;;11.30;;
9970;SDS011;5026;51.494;11.974;2024-03-07T13:27:56;21.50;;;11.90;;
9970;SDS011;5026;51.494;11.974;2024-03-07T13:30:25;17.57;;;11.10;;
9970;SDS011;5026;51.494;11.974;2024-03-07T13:32:53;19.30;;;11.30;;
9970;SDS011;5026;51.494;11.974;2024-03-07T13:35:21;18.17;;;10.70;;
9970;SDS011;5026;51.494;11.974;2024-03-07T13:37:50;19.23;;;10.77;;
9970;SDS011;5026;51.494;11.974;2024-03-07T13:40:20;17.23;;;11.07;;
9970;SDS011;5026;51.494;11.974;2024-03-07T13:42:51;26.07;;;14.43;;
9970;SDS011;5026;51.494;11.974;2024-03-07T13:45:22;19.33;;;11.50;;
9970;SDS011;5026;51.494;11.974;2024-03-07T13:47:51;16.93;;;11.27;;
9970;SDS011;5026;51.494;11.974;2024-03-07T13:50:19;16.27;;;10.43;;
9970;SDS011;5026;51.494;11.974;2024-03-07T13:52:49;17.83;;;10.23;;
9970;SDS011;5026;51.494;11.974;2024-03-07T13:55:48;16.67;;;10.43;;
9970;SDS011;5026;51.494;11.974;2024-03-07T13:58:24;18.67;;;12.37;;
9970;SDS011;5026;51.494;11.974;2024-03-07T14:01:09;17.50;;;10.53;;
9970;SDS011;5026;51.494;11.974;2024-03-07T14:07:05;15.73;;;9.90;;
9970;SDS011;5026;51.494;11.974;2024-03-07T14:09:56;17.30;;;10.33;;
9970;SDS011;5026;51.494;11.974;2024-03-07T14:12:52;16.43;;;10.40;;
9970;SDS011;5026;51.494;11.974;2024-03-07T14:22:01;17.90;;;10.57;;
9970;SDS011;5026;51.494;11.974;2024-03-07T14:24:46;18.17;;;10.27;;
9970;SDS011;5026;51.494;11.974;2024-03-07T14:27:50;16.87;;;9.90;;
9970;SDS011;5026;51.494;11.974;2024-03-07T14:30:36;15.97;;;9.87;;
9970;SDS011;5026;51.494;11.974;2024-03-07T14:33:08;16.47;;;9.50;;
9970;SDS011;5026;51.494;11.974;2024-03-07T14:35:39;15.13;;;10.03;;
9970;SDS011;5026;51.494;11.974;2024-03-07T14:38:30;14.83;;;9.63;;
9970;SDS011;5026;51.494;11.974;2024-03-07T14:41:10;16.20;;;10.70;;
9970;SDS011;5026;51.494;11.974;2024-03-07T14:43:41;15.50;;;10.57;;
9970;SDS011;5026;51.494;11.974;2024-03-07T14:46:09;20.00;;;11.47;;
9970;SDS011;5026;51.494;11.974;2024-03-07T14:48:38;17.87;;;9.73;;
9970;SDS011;5026;51.494;11.974;2024-03-07T14:51:06;15.50;;;9.90;;
9970;SDS011;5026;51.494;11.974;2024-03-07T14:53:34;16.57;;;10.40;;
9970;SDS011;5026;51.494;11.974;2024-03-07T14:56:01;18.63;;;10.47;;
9970;SDS011;5026;51.494;11.974;2024-03-07T14:58:30;25.87;;;11.27;;